This is the latest recevied weather packets stored in our database for station/object XE1GMR. If no packets are shown the sender has not sent any weather packets the latest 10 day(s).
| Time | Temp. | Humidity | Pressure | Rain* | Wind** | Luminosity | Snow |
|---|---|---|---|---|---|---|---|
| 1777760555 | 30° C | 35% | 1117.8 hPa | 0 mm | - | 374 W/m² | - |
| 1777760251 | 29.44° C | 35% | 1118.1 hPa | 0 mm | - | 363 W/m² | - |
| 1777759948 | 30° C | 35% | 1118.2 hPa | 0 mm | - | 426 W/m² | - |
| 1777759645 | 30° C | 35% | 1118.1 hPa | 0 mm | - | 432 W/m² | - |
| 1777759341 | 30° C | 36% | 1118.2 hPa | 0 mm | - | 436 W/m² | - |
| 1777759038 | 30.56° C | 35% | 1118 hPa | 0 mm | - | 442 W/m² | - |
| 1777758735 | 30.56° C | 35% | 1118.1 hPa | 0 mm | - | 469 W/m² | - |
| 1777758432 | 30.56° C | 34% | 1118.1 hPa | 0 mm | - | 488 W/m² | - |
| 1777758129 | 30.56° C | 34% | 1118.1 hPa | 0 mm | - | 495 W/m² | - |
| 1777757827 | 30.56° C | 34% | 1118.4 hPa | 0 mm | - | 522 W/m² | - |
| 1777757524 | 29.44° C | 35% | 1118.2 hPa | 0 mm | - | 517 W/m² | - |
| 1777757222 | 28.89° C | 36% | 1118.4 hPa | 0 mm | - | 519 W/m² | - |
| 1777756920 | 28.89° C | 37% | 1118.6 hPa | 0 mm | - | 340 W/m² | - |
| 1777756616 | 28.33° C | 37% | 1118.5 hPa | 0 mm | - | 283 W/m² | - |
| 1777756313 | 28.33° C | 38% | 1118.5 hPa | 0 mm | - | 208 W/m² | - |
| 1777756010 | 28.89° C | 38% | 1118.5 hPa | 0 mm | - | 225 W/m² | - |
| 1777755707 | 30° C | 36% | 1118.4 hPa | 0 mm | - | 301 W/m² | - |
| 1777755404 | 28.89° C | 37% | 1118.6 hPa | 0 mm | - | 529 W/m² | - |
| 1777755100 | 28.89° C | 39% | 1118.6 hPa | 0 mm | - | 618 W/m² | - |
| 1777754797 | 28.89° C | 39% | 1118.7 hPa | 0 mm | - | 595 W/m² | - |
| 1777754495 | 28.89° C | 39% | 1118.9 hPa | 0 mm | - | 237 W/m² | - |
| 1777754192 | 28.33° C | 39% | 1118.7 hPa | 0 mm | - | 586 W/m² | - |
| 1777753890 | 28.33° C | 41% | 1118.9 hPa | 0 mm | - | 172 W/m² | - |
| 1777753584 | 29.44° C | 39% | 1119.3 hPa | 0 mm | - | 178 W/m² | - |
| 1777753283 | 31.11° C | 36% | 1119.2 hPa | 0 mm | - | 724 W/m² | - |
* Rain latest hour (hover to see other rain measurements)
** Current wind speed in m/s (hover to see current wind gust speed)